Terminal Aerodrome Forecast
Issued by NWS

Home | Current Version | Previous Version | Graphics & Text | Print | Product List | Glossary On
Versions: 1 2 3 4 5 6 7 8 9 10 11 12 13 14 15 16 17 18 19 20
000
FTUS43 KIWX 281100
TAFSBN
TAF
KSBN 281120Z 2812/2912 34012KT P6SM SCT015 BKN040
     FM281330 34014G20KT P6SM BKN025
     FM281700 33016G24KT P6SM SCT035
     FM290000 30004KT P6SM SKC=

USA.gov is the U.S. government's official web portal to all federal, state and local government web resources and services.